sensor_id;sensor_type;location;lat;lon;timestamp;temperature;humidity
41447;DHT22;27185;52.040;4.490;2022-08-30T00:00:02;19.00;94.50
41447;DHT22;27185;52.040;4.490;2022-08-30T00:03:08;19.00;94.60
41447;DHT22;27185;52.040;4.490;2022-08-30T00:05:55;19.00;94.70
41447;DHT22;27185;52.040;4.490;2022-08-30T00:08:42;19.00;94.40
41447;DHT22;27185;52.040;4.490;2022-08-30T00:11:28;19.00;94.60
41447;DHT22;27185;52.040;4.490;2022-08-30T00:14:15;18.90;94.60
41447;DHT22;27185;52.040;4.490;2022-08-30T00:17:01;18.90;94.80
41447;DHT22;27185;52.040;4.490;2022-08-30T00:19:46;18.90;94.90
41447;DHT22;27185;52.040;4.490;2022-08-30T00:22:32;18.90;95.10
41447;DHT22;27185;52.040;4.490;2022-08-30T00:25:18;18.90;95.20
41447;DHT22;27185;52.040;4.490;2022-08-30T00:28:04;18.90;95.20
41447;DHT22;27185;52.040;4.490;2022-08-30T00:30:49;18.90;95.20
41447;DHT22;27185;52.040;4.490;2022-08-30T00:33:35;18.90;95.20
41447;DHT22;27185;52.040;4.490;2022-08-30T00:36:21;18.90;95.20
41447;DHT22;27185;52.040;4.490;2022-08-30T00:39:07;18.80;95.20
41447;DHT22;27185;52.040;4.490;2022-08-30T00:41:52;18.80;95.30
41447;DHT22;27185;52.040;4.490;2022-08-30T00:44:39;18.80;95.50
41447;DHT22;27185;52.040;4.490;2022-08-30T00:47:25;18.80;95.70
41447;DHT22;27185;52.040;4.490;2022-08-30T00:50:14;18.80;95.60
41447;DHT22;27185;52.040;4.490;2022-08-30T00:53:01;18.80;95.60
41447;DHT22;27185;52.040;4.490;2022-08-30T00:55:48;18.80;95.50
41447;DHT22;27185;52.040;4.490;2022-08-30T00:58:36;18.80;95.80
41447;DHT22;27185;52.040;4.490;2022-08-30T01:01:23;18.80;95.60
41447;DHT22;27185;52.040;4.490;2022-08-30T01:04:09;18.70;95.60
41447;DHT22;27185;52.040;4.490;2022-08-30T01:06:55;18.70;95.70
41447;DHT22;27185;52.040;4.490;2022-08-30T01:09:41;18.70;95.70
41447;DHT22;27185;52.040;4.490;2022-08-30T01:12:27;18.70;95.70
41447;DHT22;27185;52.040;4.490;2022-08-30T01:15:15;18.70;95.70
41447;DHT22;27185;52.040;4.490;2022-08-30T01:18:02;18.70;95.80
41447;DHT22;27185;52.040;4.490;2022-08-30T01:20:53;18.70;95.80
41447;DHT22;27185;52.040;4.490;2022-08-30T01:23:43;18.70;95.80
41447;DHT22;27185;52.040;4.490;2022-08-30T01:26:29;18.70;95.90
41447;DHT22;27185;52.040;4.490;2022-08-30T01:29:18;18.70;95.70
41447;DHT22;27185;52.040;4.490;2022-08-30T01:32:05;18.60;96.10
41447;DHT22;27185;52.040;4.490;2022-08-30T01:34:51;18.70;96.10
41447;DHT22;27185;52.040;4.490;2022-08-30T01:37:37;18.60;96.10
41447;DHT22;27185;52.040;4.490;2022-08-30T01:40:23;18.60;96.10
41447;DHT22;27185;52.040;4.490;2022-08-30T01:43:11;18.60;96.10
41447;DHT22;27185;52.040;4.490;2022-08-30T01:45:56;18.60;96.10
41447;DHT22;27185;52.040;4.490;2022-08-30T01:48:43;18.70;96.00
41447;DHT22;27185;52.040;4.490;2022-08-30T01:51:29;18.70;96.00
41447;DHT22;27185;52.040;4.490;2022-08-30T01:54:15;18.60;96.00
41447;DHT22;27185;52.040;4.490;2022-08-30T01:57:01;18.60;96.10
41447;DHT22;27185;52.040;4.490;2022-08-30T01:59:47;18.60;96.10
41447;DHT22;27185;52.040;4.490;2022-08-30T02:02:34;18.60;96.20
41447;DHT22;27185;52.040;4.490;2022-08-30T02:05:20;18.60;96.10
41447;DHT22;27185;52.040;4.490;2022-08-30T02:08:05;18.60;96.00
41447;DHT22;27185;52.040;4.490;2022-08-30T02:10:51;18.60;96.00
41447;DHT22;27185;52.040;4.490;2022-08-30T02:13:38;18.50;95.90
41447;DHT22;27185;52.040;4.490;2022-08-30T02:16:24;18.50;96.00
41447;DHT22;27185;52.040;4.490;2022-08-30T02:19:10;18.50;96.00
41447;DHT22;27185;52.040;4.490;2022-08-30T02:21:56;18.40;96.00
41447;DHT22;27185;52.040;4.490;2022-08-30T02:24:41;18.40;96.00
41447;DHT22;27185;52.040;4.490;2022-08-30T02:27:27;18.40;96.10
41447;DHT22;27185;52.040;4.490;2022-08-30T02:30:13;18.40;96.10
41447;DHT22;27185;52.040;4.490;2022-08-30T02:32:58;18.40;96.10
41447;DHT22;27185;52.040;4.490;2022-08-30T02:35:44;18.40;96.10
41447;DHT22;27185;52.040;4.490;2022-08-30T02:38:30;18.40;96.10
41447;DHT22;27185;52.040;4.490;2022-08-30T02:41:16;18.30;96.00
41447;DHT22;27185;52.040;4.490;2022-08-30T02:44:02;18.30;96.10
41447;DHT22;27185;52.040;4.490;2022-08-30T02:46:48;18.30;96.00
41447;DHT22;27185;52.040;4.490;2022-08-30T02:49:33;18.30;96.00
41447;DHT22;27185;52.040;4.490;2022-08-30T02:52:19;18.30;96.00
41447;DHT22;27185;52.040;4.490;2022-08-30T02:55:06;18.30;96.10
41447;DHT22;27185;52.040;4.490;2022-08-30T02:57:52;18.20;96.10
41447;DHT22;27185;52.040;4.490;2022-08-30T03:00:39;18.20;96.20
41447;DHT22;27185;52.040;4.490;2022-08-30T03:03:25;18.20;96.20
41447;DHT22;27185;52.040;4.490;2022-08-30T03:06:11;18.20;96.20
41447;DHT22;27185;52.040;4.490;2022-08-30T03:08:57;18.20;96.20
41447;DHT22;27185;52.040;4.490;2022-08-30T03:11:43;18.10;96.10
41447;DHT22;27185;52.040;4.490;2022-08-30T03:14:29;18.10;96.10
41447;DHT22;27185;52.040;4.490;2022-08-30T03:17:16;18.10;96.10
41447;DHT22;27185;52.040;4.490;2022-08-30T03:20:02;18.00;96.20
41447;DHT22;27185;52.040;4.490;2022-08-30T03:22:50;18.00;96.20
41447;DHT22;27185;52.040;4.490;2022-08-30T03:25:36;18.00;96.30
41447;DHT22;27185;52.040;4.490;2022-08-30T03:28:23;18.00;96.30
41447;DHT22;27185;52.040;4.490;2022-08-30T03:31:09;17.90;96.30
41447;DHT22;27185;52.040;4.490;2022-08-30T03:33:57;17.90;96.40
41447;DHT22;27185;52.040;4.490;2022-08-30T03:36:44;17.90;96.50
41447;DHT22;27185;52.040;4.490;2022-08-30T03:39:29;17.90;96.40
41447;DHT22;27185;52.040;4.490;2022-08-30T03:42:15;17.90;96.50
41447;DHT22;27185;52.040;4.490;2022-08-30T03:45:02;17.90;96.50
41447;DHT22;27185;52.040;4.490;2022-08-30T03:47:49;17.90;96.50
41447;DHT22;27185;52.040;4.490;2022-08-30T03:50:34;17.90;96.60
41447;DHT22;27185;52.040;4.490;2022-08-30T03:53:21;17.90;96.60
41447;DHT22;27185;52.040;4.490;2022-08-30T03:56:07;17.90;96.60
41447;DHT22;27185;52.040;4.490;2022-08-30T03:58:53;17.80;96.60
41447;DHT22;27185;52.040;4.490;2022-08-30T04:01:38;17.90;96.70
41447;DHT22;27185;52.040;4.490;2022-08-30T04:04:26;17.80;96.70
41447;DHT22;27185;52.040;4.490;2022-08-30T04:07:11;17.80;96.70
41447;DHT22;27185;52.040;4.490;2022-08-30T04:09:57;17.80;96.80
41447;DHT22;27185;52.040;4.490;2022-08-30T04:12:43;17.80;96.80
41447;DHT22;27185;52.040;4.490;2022-08-30T04:15:28;17.80;96.80
41447;DHT22;27185;52.040;4.490;2022-08-30T04:18:14;17.80;96.90
41447;DHT22;27185;52.040;4.490;2022-08-30T04:21:01;17.80;96.80
41447;DHT22;27185;52.040;4.490;2022-08-30T04:23:46;17.80;96.90
41447;DHT22;27185;52.040;4.490;2022-08-30T04:26:33;17.70;96.90
41447;DHT22;27185;52.040;4.490;2022-08-30T04:29:20;17.70;97.00
41447;DHT22;27185;52.040;4.490;2022-08-30T04:32:05;17.70;96.90
41447;DHT22;27185;52.040;4.490;2022-08-30T04:34:58;17.70;97.00
41447;DHT22;27185;52.040;4.490;2022-08-30T04:37:44;17.70;97.10
41447;DHT22;27185;52.040;4.490;2022-08-30T04:40:29;17.70;97.10
41447;DHT22;27185;52.040;4.490;2022-08-30T04:43:16;17.70;97.10
41447;DHT22;27185;52.040;4.490;2022-08-30T04:46:05;17.60;97.10
41447;DHT22;27185;52.040;4.490;2022-08-30T04:48:51;17.60;97.10
41447;DHT22;27185;52.040;4.490;2022-08-30T04:51:36;17.60;97.00
41447;DHT22;27185;52.040;4.490;2022-08-30T04:54:22;17.60;97.10
41447;DHT22;27185;52.040;4.490;2022-08-30T04:57:08;17.50;97.10
41447;DHT22;27185;52.040;4.490;2022-08-30T04:59:54;17.60;97.20
41447;DHT22;27185;52.040;4.490;2022-08-30T05:02:40;17.50;97.20
41447;DHT22;27185;52.040;4.490;2022-08-30T05:05:26;17.50;97.20
41447;DHT22;27185;52.040;4.490;2022-08-30T05:08:24;17.50;97.20
41447;DHT22;27185;52.040;4.490;2022-08-30T05:11:09;17.50;97.20
41447;DHT22;27185;52.040;4.490;2022-08-30T05:13:56;17.50;97.30
41447;DHT22;27185;52.040;4.490;2022-08-30T05:16:42;17.40;97.40
41447;DHT22;27185;52.040;4.490;2022-08-30T05:19:30;17.40;97.30
41447;DHT22;27185;52.040;4.490;2022-08-30T05:22:18;17.40;97.40
41447;DHT22;27185;52.040;4.490;2022-08-30T05:25:04;17.40;97.40
41447;DHT22;27185;52.040;4.490;2022-08-30T05:27:51;17.40;97.60
41447;DHT22;27185;52.040;4.490;2022-08-30T05:30:36;17.40;97.60
41447;DHT22;27185;52.040;4.490;2022-08-30T05:33:22;17.40;97.70
41447;DHT22;27185;52.040;4.490;2022-08-30T05:36:09;17.50;97.70
41447;DHT22;27185;52.040;4.490;2022-08-30T05:38:55;17.50;97.80
41447;DHT22;27185;52.040;4.490;2022-08-30T05:41:41;17.50;97.80
41447;DHT22;27185;52.040;4.490;2022-08-30T05:44:27;17.50;97.90
41447;DHT22;27185;52.040;4.490;2022-08-30T05:47:12;17.60;98.00
41447;DHT22;27185;52.040;4.490;2022-08-30T05:49:58;17.60;98.00
41447;DHT22;27185;52.040;4.490;2022-08-30T05:52:43;17.60;98.10
41447;DHT22;27185;52.040;4.490;2022-08-30T05:55:29;17.70;98.30
41447;DHT22;27185;52.040;4.490;2022-08-30T05:58:15;17.70;98.30
41447;DHT22;27185;52.040;4.490;2022-08-30T06:01:01;17.80;98.30
41447;DHT22;27185;52.040;4.490;2022-08-30T06:03:47;17.80;98.30
41447;DHT22;27185;52.040;4.490;2022-08-30T06:06:36;17.90;98.30
41447;DHT22;27185;52.040;4.490;2022-08-30T06:09:21;17.90;98.30
41447;DHT22;27185;52.040;4.490;2022-08-30T06:12:07;17.90;98.20
41447;DHT22;27185;52.040;4.490;2022-08-30T06:14:53;18.00;98.20
41447;DHT22;27185;52.040;4.490;2022-08-30T06:17:38;18.10;98.10
41447;DHT22;27185;52.040;4.490;2022-08-30T06:20:24;18.20;98.10
41447;DHT22;27185;52.040;4.490;2022-08-30T06:23:10;18.20;98.10
41447;DHT22;27185;52.040;4.490;2022-08-30T06:25:56;18.30;98.00
41447;DHT22;27185;52.040;4.490;2022-08-30T06:28:41;18.40;98.00
41447;DHT22;27185;52.040;4.490;2022-08-30T06:31:27;18.40;97.90
41447;DHT22;27185;52.040;4.490;2022-08-30T06:34:13;18.50;97.80
41447;DHT22;27185;52.040;4.490;2022-08-30T06:36:58;18.50;97.70
41447;DHT22;27185;52.040;4.490;2022-08-30T06:39:44;18.60;98.00
41447;DHT22;27185;52.040;4.490;2022-08-30T06:42:31;18.60;97.60
41447;DHT22;27185;52.040;4.490;2022-08-30T06:45:17;18.70;97.60
41447;DHT22;27185;52.040;4.490;2022-08-30T06:48:04;18.70;97.60
41447;DHT22;27185;52.040;4.490;2022-08-30T06:50:53;18.80;97.50
41447;DHT22;27185;52.040;4.490;2022-08-30T06:53:39;18.90;97.50
41447;DHT22;27185;52.040;4.490;2022-08-30T06:56:25;19.00;97.50
41447;DHT22;27185;52.040;4.490;2022-08-30T06:59:11;19.10;97.40
41447;DHT22;27185;52.040;4.490;2022-08-30T07:01:56;19.20;97.20
41447;DHT22;27185;52.040;4.490;2022-08-30T07:04:42;19.30;97.10
41447;DHT22;27185;52.040;4.490;2022-08-30T07:07:27;19.40;96.90
41447;DHT22;27185;52.040;4.490;2022-08-30T07:10:14;19.40;96.80
41447;DHT22;27185;52.040;4.490;2022-08-30T07:12:59;19.50;96.70
41447;DHT22;27185;52.040;4.490;2022-08-30T07:15:46;19.60;96.50
41447;DHT22;27185;52.040;4.490;2022-08-30T07:18:31;19.60;96.40
41447;DHT22;27185;52.040;4.490;2022-08-30T07:21:41;19.70;96.30
41447;DHT22;27185;52.040;4.490;2022-08-30T07:24:30;19.80;96.10
41447;DHT22;27185;52.040;4.490;2022-08-30T07:27:15;19.80;96.00
41447;DHT22;27185;52.040;4.490;2022-08-30T07:30:01;19.90;95.90
41447;DHT22;27185;52.040;4.490;2022-08-30T07:32:47;19.90;95.80
41447;DHT22;27185;52.040;4.490;2022-08-30T07:35:33;20.00;95.70
41447;DHT22;27185;52.040;4.490;2022-08-30T07:38:19;20.10;95.40
41447;DHT22;27185;52.040;4.490;2022-08-30T07:41:05;20.10;95.20
41447;DHT22;27185;52.040;4.490;2022-08-30T07:43:51;20.20;95.10
41447;DHT22;27185;52.040;4.490;2022-08-30T07:46:38;20.30;94.80
41447;DHT22;27185;52.040;4.490;2022-08-30T07:49:24;20.40;94.60
41447;DHT22;27185;52.040;4.490;2022-08-30T07:52:09;20.50;94.50
41447;DHT22;27185;52.040;4.490;2022-08-30T07:54:55;20.50;94.20
41447;DHT22;27185;52.040;4.490;2022-08-30T07:57:41;20.60;94.00
41447;DHT22;27185;52.040;4.490;2022-08-30T08:00:27;20.60;93.80
41447;DHT22;27185;52.040;4.490;2022-08-30T08:03:12;20.70;93.70
41447;DHT22;27185;52.040;4.490;2022-08-30T08:06:01;20.80;93.70
41447;DHT22;27185;52.040;4.490;2022-08-30T08:08:48;20.90;93.30
41447;DHT22;27185;52.040;4.490;2022-08-30T08:11:34;21.00;93.10
41447;DHT22;27185;52.040;4.490;2022-08-30T08:14:21;21.00;92.70
41447;DHT22;27185;52.040;4.490;2022-08-30T08:17:07;21.10;92.70
41447;DHT22;27185;52.040;4.490;2022-08-30T08:19:53;21.20;92.60
41447;DHT22;27185;52.040;4.490;2022-08-30T08:22:39;21.30;92.20
41447;DHT22;27185;52.040;4.490;2022-08-30T08:25:25;21.40;91.60
41447;DHT22;27185;52.040;4.490;2022-08-30T08:28:11;21.50;91.40
41447;DHT22;27185;52.040;4.490;2022-08-30T08:30:56;21.60;91.60
41447;DHT22;27185;52.040;4.490;2022-08-30T08:33:42;21.60;91.40
41447;DHT22;27185;52.040;4.490;2022-08-30T08:36:28;21.70;91.00
41447;DHT22;27185;52.040;4.490;2022-08-30T08:39:16;21.80;91.10
41447;DHT22;27185;52.040;4.490;2022-08-30T08:42:15;21.90;90.40
41447;DHT22;27185;52.040;4.490;2022-08-30T08:45:13;22.00;90.20
41447;DHT22;27185;52.040;4.490;2022-08-30T08:48:26;22.00;90.30
41447;DHT22;27185;52.040;4.490;2022-08-30T08:51:14;22.10;89.30
41447;DHT22;27185;52.040;4.490;2022-08-30T08:54:29;22.20;89.20
41447;DHT22;27185;52.040;4.490;2022-08-30T08:57:17;22.30;88.90
41447;DHT22;27185;52.040;4.490;2022-08-30T09:00:05;22.40;89.30
41447;DHT22;27185;52.040;4.490;2022-08-30T09:02:59;22.50;87.20
41447;DHT22;27185;52.040;4.490;2022-08-30T09:05:47;22.60;86.50
41447;DHT22;27185;52.040;4.490;2022-08-30T09:08:33;22.70;85.50
41447;DHT22;27185;52.040;4.490;2022-08-30T09:11:25;22.70;84.70
41447;DHT22;27185;52.040;4.490;2022-08-30T09:14:21;22.80;84.40
41447;DHT22;27185;52.040;4.490;2022-08-30T09:17:09;22.80;83.80
41447;DHT22;27185;52.040;4.490;2022-08-30T09:19:56;22.90;83.90
41447;DHT22;27185;52.040;4.490;2022-08-30T09:22:43;22.90;83.50
41447;DHT22;27185;52.040;4.490;2022-08-30T09:25:30;23.10;84.00
41447;DHT22;27185;52.040;4.490;2022-08-30T09:28:22;23.10;83.60
41447;DHT22;27185;52.040;4.490;2022-08-30T09:31:21;23.20;83.70
41447;DHT22;27185;52.040;4.490;2022-08-30T09:34:16;23.30;80.90
41447;DHT22;27185;52.040;4.490;2022-08-30T09:37:01;23.40;80.80
41447;DHT22;27185;52.040;4.490;2022-08-30T09:39:47;23.40;81.20
41447;DHT22;27185;52.040;4.490;2022-08-30T09:42:33;23.50;80.40
41447;DHT22;27185;52.040;4.490;2022-08-30T09:45:28;23.60;79.00
41447;DHT22;27185;52.040;4.490;2022-08-30T09:51:32;23.70;77.80
41447;DHT22;27185;52.040;4.490;2022-08-30T09:54:37;23.80;77.20
41447;DHT22;27185;52.040;4.490;2022-08-30T09:57:38;23.80;76.60
41447;DHT22;27185;52.040;4.490;2022-08-30T10:00:28;23.90;76.40
41447;DHT22;27185;52.040;4.490;2022-08-30T10:03:18;24.00;78.30
41447;DHT22;27185;52.040;4.490;2022-08-30T10:06:14;24.10;78.10
41447;DHT22;27185;52.040;4.490;2022-08-30T10:12:07;24.30;76.00
41447;DHT22;27185;52.040;4.490;2022-08-30T10:15:05;24.70;75.10
41447;DHT22;27185;52.040;4.490;2022-08-30T10:21:06;25.40;74.10
41447;DHT22;27185;52.040;4.490;2022-08-30T10:24:00;25.70;73.40
41447;DHT22;27185;52.040;4.490;2022-08-30T10:27:00;26.10;73.80
41447;DHT22;27185;52.040;4.490;2022-08-30T10:29:52;26.50;72.10
41447;DHT22;27185;52.040;4.490;2022-08-30T10:32:57;26.80;71.70
41447;DHT22;27185;52.040;4.490;2022-08-30T10:35:52;27.10;69.90
41447;DHT22;27185;52.040;4.490;2022-08-30T10:38:49;27.30;67.70
41447;DHT22;27185;52.040;4.490;2022-08-30T10:41:44;27.50;68.60
41447;DHT22;27185;52.040;4.490;2022-08-30T10:44:38;27.60;67.40
41447;DHT22;27185;52.040;4.490;2022-08-30T10:47:30;27.70;66.30
41447;DHT22;27185;52.040;4.490;2022-08-30T10:50:31;27.70;64.60
41447;DHT22;27185;52.040;4.490;2022-08-30T10:53:28;27.80;64.30
41447;DHT22;27185;52.040;4.490;2022-08-30T10:56:18;27.90;64.50
41447;DHT22;27185;52.040;4.490;2022-08-30T10:59:06;28.00;65.40
41447;DHT22;27185;52.040;4.490;2022-08-30T11:02:17;28.20;65.50
41447;DHT22;27185;52.040;4.490;2022-08-30T11:14:18;28.30;60.80
41447;DHT22;27185;52.040;4.490;2022-08-30T11:17:04;28.30;61.30
41447;DHT22;27185;52.040;4.490;2022-08-30T11:19:51;28.20;61.20
41447;DHT22;27185;52.040;4.490;2022-08-30T11:23:06;28.30;60.90
41447;DHT22;27185;52.040;4.490;2022-08-30T11:26:10;28.40;61.90
41447;DHT22;27185;52.040;4.490;2022-08-30T11:31:42;28.70;60.80
41447;DHT22;27185;52.040;4.490;2022-08-30T11:37:36;29.10;61.10
41447;DHT22;27185;52.040;4.490;2022-08-30T11:52:40;30.10;59.80
41447;DHT22;27185;52.040;4.490;2022-08-30T11:58:55;30.20;58.20
41447;DHT22;27185;52.040;4.490;2022-08-30T12:01:42;30.20;57.50
41447;DHT22;27185;52.040;4.490;2022-08-30T12:04:49;30.10;57.10
41447;DHT22;27185;52.040;4.490;2022-08-30T12:07:54;30.00;58.00
41447;DHT22;27185;52.040;4.490;2022-08-30T12:10:44;30.00;58.20
41447;DHT22;27185;52.040;4.490;2022-08-30T12:16:42;30.00;57.60
41447;DHT22;27185;52.040;4.490;2022-08-30T12:19:47;29.90;56.10
41447;DHT22;27185;52.040;4.490;2022-08-30T12:22:34;29.90;56.50
41447;DHT22;27185;52.040;4.490;2022-08-30T12:25:33;29.90;57.10
41447;DHT22;27185;52.040;4.490;2022-08-30T12:28:24;29.90;57.30
41447;DHT22;27185;52.040;4.490;2022-08-30T12:31:14;29.90;57.20
41447;DHT22;27185;52.040;4.490;2022-08-30T12:34:00;30.10;57.10
41447;DHT22;27185;52.040;4.490;2022-08-30T12:40:20;30.30;56.90
41447;DHT22;27185;52.040;4.490;2022-08-30T12:43:21;30.40;56.60
41447;DHT22;27185;52.040;4.490;2022-08-30T12:46:10;30.30;57.20
41447;DHT22;27185;52.040;4.490;2022-08-30T12:48:56;30.20;57.50
41447;DHT22;27185;52.040;4.490;2022-08-30T12:51:43;30.10;57.90
41447;DHT22;27185;52.040;4.490;2022-08-30T12:54:29;30.00;57.70
41447;DHT22;27185;52.040;4.490;2022-08-30T12:57:42;29.90;57.80
41447;DHT22;27185;52.040;4.490;2022-08-30T13:03:34;29.80;57.90
41447;DHT22;27185;52.040;4.490;2022-08-30T13:12:26;29.60;57.50
41447;DHT22;27185;52.040;4.490;2022-08-30T13:15:20;29.50;57.30
41447;DHT22;27185;52.040;4.490;2022-08-30T13:18:18;29.40;57.30
41447;DHT22;27185;52.040;4.490;2022-08-30T13:21:11;29.20;57.60
41447;DHT22;27185;52.040;4.490;2022-08-30T13:24:04;29.20;58.40
41447;DHT22;27185;52.040;4.490;2022-08-30T13:26:50;29.10;58.00
41447;DHT22;27185;52.040;4.490;2022-08-30T13:29:37;29.20;58.40
41447;DHT22;27185;52.040;4.490;2022-08-30T13:32:23;29.20;58.40
41447;DHT22;27185;52.040;4.490;2022-08-30T13:35:10;29.40;58.40
41447;DHT22;27185;52.040;4.490;2022-08-30T13:37:56;29.40;57.60
41447;DHT22;27185;52.040;4.490;2022-08-30T13:40:44;29.40;58.10
41447;DHT22;27185;52.040;4.490;2022-08-30T13:43:30;29.40;57.90
41447;DHT22;27185;52.040;4.490;2022-08-30T13:46:17;29.40;57.90
41447;DHT22;27185;52.040;4.490;2022-08-30T13:49:06;29.30;58.10
41447;DHT22;27185;52.040;4.490;2022-08-30T13:51:52;29.30;58.10
41447;DHT22;27185;52.040;4.490;2022-08-30T13:54:38;29.40;58.70
41447;DHT22;27185;52.040;4.490;2022-08-30T13:57:27;29.50;58.50
41447;DHT22;27185;52.040;4.490;2022-08-30T14:00:16;29.60;58.50
41447;DHT22;27185;52.040;4.490;2022-08-30T14:03:03;29.60;57.80
41447;DHT22;27185;52.040;4.490;2022-08-30T14:05:50;29.60;57.40
41447;DHT22;27185;52.040;4.490;2022-08-30T14:08:36;29.60;57.60
41447;DHT22;27185;52.040;4.490;2022-08-30T14:11:22;29.60;57.50
41447;DHT22;27185;52.040;4.490;2022-08-30T14:14:08;29.50;57.50
41447;DHT22;27185;52.040;4.490;2022-08-30T14:16:54;29.50;57.20
41447;DHT22;27185;52.040;4.490;2022-08-30T14:19:39;29.60;57.90
41447;DHT22;27185;52.040;4.490;2022-08-30T14:22:25;29.70;57.70
41447;DHT22;27185;52.040;4.490;2022-08-30T14:25:11;29.70;57.40
41447;DHT22;27185;52.040;4.490;2022-08-30T14:27:57;29.70;57.40
41447;DHT22;27185;52.040;4.490;2022-08-30T14:30:42;29.70;57.40
41447;DHT22;27185;52.040;4.490;2022-08-30T14:33:30;29.70;57.00
41447;DHT22;27185;52.040;4.490;2022-08-30T14:36:16;29.50;56.60
41447;DHT22;27185;52.040;4.490;2022-08-30T14:39:06;29.20;56.70
41447;DHT22;27185;52.040;4.490;2022-08-30T14:41:53;28.90;57.10
41447;DHT22;27185;52.040;4.490;2022-08-30T14:44:39;28.60;57.50
41447;DHT22;27185;52.040;4.490;2022-08-30T14:47:25;28.30;57.90
41447;DHT22;27185;52.040;4.490;2022-08-30T14:50:10;28.10;58.40
41447;DHT22;27185;52.040;4.490;2022-08-30T14:52:56;27.90;58.60
41447;DHT22;27185;52.040;4.490;2022-08-30T14:55:42;27.70;59.00
41447;DHT22;27185;52.040;4.490;2022-08-30T14:58:27;27.60;59.00
41447;DHT22;27185;52.040;4.490;2022-08-30T15:01:13;27.50;59.10
41447;DHT22;27185;52.040;4.490;2022-08-30T15:03:58;27.40;59.20
41447;DHT22;27185;52.040;4.490;2022-08-30T15:06:46;27.20;59.30
41447;DHT22;27185;52.040;4.490;2022-08-30T15:09:35;27.10;59.80
41447;DHT22;27185;52.040;4.490;2022-08-30T15:12:21;26.90;59.90
41447;DHT22;27185;52.040;4.490;2022-08-30T15:15:09;26.90;60.40
41447;DHT22;27185;52.040;4.490;2022-08-30T15:17:54;26.90;60.10
41447;DHT22;27185;52.040;4.490;2022-08-30T15:20:47;26.90;59.80
41447;DHT22;27185;52.040;4.490;2022-08-30T15:23:33;27.10;60.00
41447;DHT22;27185;52.040;4.490;2022-08-30T15:26:20;27.20;60.20
41447;DHT22;27185;52.040;4.490;2022-08-30T15:29:07;27.40;59.80
41447;DHT22;27185;52.040;4.490;2022-08-30T15:31:53;27.50;59.60
41447;DHT22;27185;52.040;4.490;2022-08-30T15:34:38;27.60;59.40
41447;DHT22;27185;52.040;4.490;2022-08-30T15:37:24;27.80;59.10
41447;DHT22;27185;52.040;4.490;2022-08-30T15:40:10;27.90;58.70
41447;DHT22;27185;52.040;4.490;2022-08-30T15:42:56;28.00;58.30
41447;DHT22;27185;52.040;4.490;2022-08-30T15:45:41;28.10;58.10
41447;DHT22;27185;52.040;4.490;2022-08-30T15:48:27;28.20;57.80
41447;DHT22;27185;52.040;4.490;2022-08-30T15:51:13;28.20;57.50
41447;DHT22;27185;52.040;4.490;2022-08-30T15:53:59;28.10;57.60
41447;DHT22;27185;52.040;4.490;2022-08-30T15:56:45;28.00;57.30
41447;DHT22;27185;52.040;4.490;2022-08-30T15:59:31;27.80;57.30
41447;DHT22;27185;52.040;4.490;2022-08-30T16:02:16;27.60;57.70
41447;DHT22;27185;52.040;4.490;2022-08-30T16:05:02;27.40;58.00
41447;DHT22;27185;52.040;4.490;2022-08-30T16:07:49;27.30;58.00
41447;DHT22;27185;52.040;4.490;2022-08-30T16:10:35;27.20;58.00
41447;DHT22;27185;52.040;4.490;2022-08-30T16:13:21;27.20;58.50
41447;DHT22;27185;52.040;4.490;2022-08-30T16:16:08;27.10;58.40
41447;DHT22;27185;52.040;4.490;2022-08-30T16:18:53;27.20;58.40
41447;DHT22;27185;52.040;4.490;2022-08-30T16:21:41;27.20;58.20
41447;DHT22;27185;52.040;4.490;2022-08-30T16:24:27;27.30;58.30
41447;DHT22;27185;52.040;4.490;2022-08-30T16:27:13;27.40;58.20
41447;DHT22;27185;52.040;4.490;2022-08-30T16:29:59;27.50;58.20
41447;DHT22;27185;52.040;4.490;2022-08-30T16:32:44;27.60;58.00
41447;DHT22;27185;52.040;4.490;2022-08-30T16:35:31;27.70;57.60
41447;DHT22;27185;52.040;4.490;2022-08-30T16:38:17;27.80;57.60
41447;DHT22;27185;52.040;4.490;2022-08-30T16:41:04;27.70;57.10
41447;DHT22;27185;52.040;4.490;2022-08-30T16:43:51;27.70;57.20
41447;DHT22;27185;52.040;4.490;2022-08-30T16:46:36;27.70;57.20
41447;DHT22;27185;52.040;4.490;2022-08-30T16:49:22;27.60;57.20
41447;DHT22;27185;52.040;4.490;2022-08-30T16:52:08;27.60;56.90
41447;DHT22;27185;52.040;4.490;2022-08-30T16:54:55;27.50;56.80
41447;DHT22;27185;52.040;4.490;2022-08-30T16:57:41;27.40;56.90
41447;DHT22;27185;52.040;4.490;2022-08-30T17:00:27;27.40;57.00
41447;DHT22;27185;52.040;4.490;2022-08-30T17:03:12;27.40;57.30
41447;DHT22;27185;52.040;4.490;2022-08-30T17:05:59;27.40;57.40
41447;DHT22;27185;52.040;4.490;2022-08-30T17:08:45;27.40;57.40
41447;DHT22;27185;52.040;4.490;2022-08-30T17:11:32;27.40;57.30
41447;DHT22;27185;52.040;4.490;2022-08-30T17:14:18;27.40;57.20
41447;DHT22;27185;52.040;4.490;2022-08-30T17:17:05;27.30;57.10
41447;DHT22;27185;52.040;4.490;2022-08-30T17:19:51;27.10;57.20
41447;DHT22;27185;52.040;4.490;2022-08-30T17:22:36;26.80;57.40
41447;DHT22;27185;52.040;4.490;2022-08-30T17:25:22;26.50;57.30
41447;DHT22;27185;52.040;4.490;2022-08-30T17:28:08;26.30;57.60
41447;DHT22;27185;52.040;4.490;2022-08-30T17:30:54;26.00;58.00
41447;DHT22;27185;52.040;4.490;2022-08-30T17:33:41;25.90;58.40
41447;DHT22;27185;52.040;4.490;2022-08-30T17:36:28;25.70;58.70
41447;DHT22;27185;52.040;4.490;2022-08-30T17:39:14;25.60;59.00
41447;DHT22;27185;52.040;4.490;2022-08-30T17:42:04;25.40;59.20
41447;DHT22;27185;52.040;4.490;2022-08-30T17:44:50;25.30;59.40
41447;DHT22;27185;52.040;4.490;2022-08-30T17:47:35;25.10;59.60
41447;DHT22;27185;52.040;4.490;2022-08-30T17:50:21;25.10;59.90
41447;DHT22;27185;52.040;4.490;2022-08-30T17:53:07;24.90;60.00
41447;DHT22;27185;52.040;4.490;2022-08-30T17:55:52;24.80;60.20
41447;DHT22;27185;52.040;4.490;2022-08-30T17:58:38;24.70;60.40
41447;DHT22;27185;52.040;4.490;2022-08-30T18:01:24;24.60;60.60
41447;DHT22;27185;52.040;4.490;2022-08-30T18:04:12;24.50;61.00
41447;DHT22;27185;52.040;4.490;2022-08-30T18:06:58;24.40;61.20
41447;DHT22;27185;52.040;4.490;2022-08-30T18:09:45;24.40;61.00
41447;DHT22;27185;52.040;4.490;2022-08-30T18:12:30;24.30;61.60
41447;DHT22;27185;52.040;4.490;2022-08-30T18:15:16;24.20;62.00
41447;DHT22;27185;52.040;4.490;2022-08-30T18:18:01;24.10;62.40
41447;DHT22;27185;52.040;4.490;2022-08-30T18:20:47;24.00;62.60
41447;DHT22;27185;52.040;4.490;2022-08-30T18:23:33;23.90;63.00
41447;DHT22;27185;52.040;4.490;2022-08-30T18:26:18;23.80;63.00
41447;DHT22;27185;52.040;4.490;2022-08-30T18:29:04;23.70;63.20
41447;DHT22;27185;52.040;4.490;2022-08-30T18:31:50;23.60;64.10
41447;DHT22;27185;52.040;4.490;2022-08-30T18:34:37;23.60;63.70